DIRECCIÓN GENERAL DE AERONÁUTICA CIVIL
DIRECCIÓN METEOROLÓGICA DE CHILE
INFORMACIÓN METAR Y TAF

FIR PUERTO MONTT

Estación: SCQP
METAR SCQP 011000Z 36003KT 9000 FEW015 03/02 Q1021=

TAF SCQP 010431Z 0106/0206 VRB02KT CAVOK TN02/0110Z TX15/0119Z PROB40 TEMPO 0107/0110 0400 FG VV/// BECMG 0112/0114 18005KT 9999 SCT030 TEMPO 0118/0124 8000 -SHRA BKN020 BECMG 0200/0202 14005KT=

Estación: SCVD
METAR SCVD 011000Z AUTO VRB02KT 9999 OVC021 05/05 Q1022=

TAF SCVD 311645Z 3118/0106 23008KT 9999 BKN040 TX14/3118Z TN05/0106Z BECMG 0104/0106 15005KT SCT025=

Estación: SCJO
METAR SCJO 312200Z 17006KT 7000 -SHRA BKN027 09/08 Q1024=

TAF SCJO 311645Z 3118/0106 22005KT 9999 BKN035 TX12/3118Z TN04/0106Z TEMPO 3118/3121 5000 -SHRA BKN020 BECMG 0103/0105 15005KT SCT025=

Estación: SCTE
METAR SCTE 011000Z VRB01KT 9999 BKN043 07/04 Q1025 NOSIG=

TAF SCTE 010434Z 0106/0206 14005KT 9999 SCT030 TN02/0109Z TX11/0119Z BECMG 0114/0116 10012KT BKN040 PROB30 TEMPO 0118/0121 8000 -SHRA BKN020 BECMG 0122/0124 BKN015=

Estación: SCPQ
METAR SCPQ 011000Z AUTO 18009KT //// NCD 04/03 Q1026=

TAF SCPQ 311645Z 3118/0106 17008KT 9999 BKN040 TX10/3118Z TN05/0106Z TEMPO 3118/3121 5000 -SHRA SCT015 BKN025 BECMG 0100/0102 15010KT SCT030=

Estación: SCON
METAR SCON 011000Z AUTO 00000KT CAVOK 07/02 Q1028=

TAF SCON 311645Z 3118/0106 16005KT CAVOK TX10/3118Z TN05/0106Z TEMPO 3118/3121 9999 BKN030 BECMG 0100/0102 14010KT=

Estación: SCTN
NIL=

NIL=

Estación: SCFT
METAR SCFT 011000Z AUTO 00000KT CAVOK M02/M03 Q1031=

NIL=

Estación: SCAP
METAR SCAP 011000Z AUTO VRB01KT //// // NSC M02/M03 Q1038=

NIL=

Estación: SCMK
METAR SCMK 312100Z 20009KT 9999 FEW023 10/00 Q1024=

TAF COR SCMK 311655Z 3118/0106 16007KT 9999 SCT030 TX10/3118Z TN05/ 0106Z BECMG 3121/3123 CAVOK BECMG 0102/0104 12012KT=

Estación: SCAS
METAR SCAS 302000Z 26012G24KT 9999 BKN040 08/M02 Q1011=

NIL=

Estación: SCCY
METAR SCCY 010000Z 28003KT 9999 FEW040 SCT080 07/M03 Q1027=

TAF COR SCCY 311658Z 3118/0106 24005KT 9999 BKN045 TX08/3118Z TN02/ 0106Z BECMG 0103/0105 VRB02KT SCT060=

Estación: SCBA
METAR SCBA 011000Z AUTO 00000KT CAVOK M06/M08 Q1034=

TAF SCBA 010438Z 0106/0206 17005KT CAVOK TNM04/0110Z TX08/0118Z BECMG 0112/0114 10005KT BECMG 0118/0120 05005KT=

Estación: SCCC
METAR SCCC 310600Z AUTO 15003KT 130V190 CAVOK M01/M07 Q1016=

NIL=

Estación: SCHR
METAR SCHR 310600Z AUTO 30008KT CAVOK 01/M02 Q1015=

TAF SCHR 301050Z 3012/3100 27005KT 9999 SCT040 TN00/3012Z TX06/3019Z TEMPO 3013/3017 24015KT 7000 -SHRASN BKN025 BECMG 3018/3020 23010KT=


Volver